createdAt,value
2023-09-01T00:00:37.872Z,15.03
2023-09-01T00:03:07.120Z,14.88
2023-09-01T00:05:35.095Z,14.89
2023-09-01T00:08:02.852Z,14.85
2023-09-01T00:10:30.698Z,14.74
2023-09-01T00:13:00.921Z,14.58
2023-09-01T00:15:29.021Z,14.59
2023-09-01T00:17:58.125Z,14.67
2023-09-01T00:20:26.176Z,14.70
2023-09-01T00:22:54.637Z,14.50
2023-09-01T00:25:23.716Z,14.51
2023-09-01T00:27:51.567Z,14.52
2023-09-01T00:30:20.558Z,14.58
2023-09-01T00:32:48.263Z,14.50
2023-09-01T00:35:17.773Z,14.39
2023-09-01T00:37:47.569Z,14.45
2023-09-01T00:40:15.438Z,14.47
2023-09-01T00:42:43.132Z,14.53
2023-09-01T00:45:11.247Z,14.36
2023-09-01T00:47:39.125Z,14.27
2023-09-01T00:50:09.142Z,14.22
2023-09-01T00:52:38.571Z,14.14
2023-09-01T00:55:07.217Z,14.10
2023-09-01T00:57:35.928Z,14.17
2023-09-01T01:00:06.783Z,14.19
2023-09-01T01:02:36.215Z,14.21
2023-09-01T01:05:15.515Z,14.00
2023-09-01T01:07:53.862Z,14.04
2023-09-01T01:10:26.637Z,14.07
2023-09-01T01:13:01.560Z,13.99
2023-09-01T01:15:33.705Z,13.99
2023-09-01T01:18:06.010Z,14.01
2023-09-01T01:20:39.169Z,13.92
2023-09-01T01:23:12.048Z,14.00
2023-09-01T01:25:47.221Z,13.97
2023-09-01T01:28:15.694Z,13.96
2023-09-01T01:30:49.534Z,14.05
2023-09-01T01:33:40.212Z,14.06
2023-09-01T01:36:20.929Z,14.02
2023-09-01T01:38:59.982Z,13.99
2023-09-01T01:41:34.781Z,13.96
2023-09-01T01:44:03.381Z,13.93
2023-09-01T01:46:31.384Z,13.94
2023-09-01T01:48:59.438Z,13.92
2023-09-01T01:51:27.169Z,13.96
2023-09-01T01:53:56.706Z,13.88
2023-09-01T01:56:24.451Z,13.93
2023-09-01T01:58:52.619Z,13.88
2023-09-01T02:01:20.457Z,13.91
2023-09-01T02:03:48.200Z,13.81
2023-09-01T02:06:15.959Z,13.75
2023-09-01T02:08:45.230Z,13.76
2023-09-01T02:11:14.761Z,13.79
2023-09-01T02:13:43.651Z,13.80
2023-09-01T02:16:11.767Z,13.81
2023-09-01T02:18:39.563Z,13.89
2023-09-01T02:21:07.266Z,13.86
2023-09-01T02:23:34.986Z,13.94
2023-09-01T02:26:03.313Z,13.98
2023-09-01T02:28:32.650Z,13.83
2023-09-01T02:31:07.428Z,13.76
2023-09-01T02:33:35.224Z,13.61
2023-09-01T02:36:25.630Z,13.59
2023-09-01T02:38:53.951Z,13.64
2023-09-01T02:41:22.884Z,13.61
2023-09-01T02:43:52.955Z,13.54
2023-09-01T02:46:21.722Z,13.58
2023-09-01T02:48:49.948Z,13.66
2023-09-01T02:51:17.751Z,13.51
2023-09-01T02:53:45.516Z,13.47
2023-09-01T02:56:13.326Z,13.52
2023-09-01T02:58:41.510Z,13.62
2023-09-01T03:01:12.212Z,13.66
2023-09-01T03:03:42.031Z,13.70
2023-09-01T03:06:10.408Z,13.61
2023-09-01T03:08:38.939Z,13.64
2023-09-01T03:11:07.443Z,13.42
2023-09-01T03:13:35.380Z,13.38
2023-09-01T03:16:03.894Z,13.48
2023-09-01T03:18:33.151Z,13.55
2023-09-01T03:21:10.696Z,13.40
2023-09-01T03:23:39.526Z,13.46
2023-09-01T03:26:08.337Z,13.42
2023-09-01T03:28:36.298Z,13.43
2023-09-01T03:31:04.813Z,13.46
2023-09-01T03:33:34.541Z,13.49
2023-09-01T03:36:04.120Z,13.55
2023-09-01T03:38:33.330Z,13.47
2023-09-01T03:41:03.225Z,13.49
2023-09-01T03:43:31.152Z,13.43
2023-09-01T03:45:59.864Z,13.44
2023-09-01T03:48:27.748Z,13.38
2023-09-01T03:51:10.946Z,13.37
2023-09-01T03:53:39.231Z,13.46
2023-09-01T03:56:12.204Z,13.46
2023-09-01T03:58:42.594Z,13.49
2023-09-01T04:01:13.070Z,13.51
2023-09-01T04:03:42.762Z,13.67
2023-09-01T04:06:12.154Z,13.54
2023-09-01T04:08:40.272Z,13.41
2023-09-01T04:11:08.725Z,13.49
2023-09-01T04:13:37.326Z,13.56
2023-09-01T04:16:06.162Z,13.58
2023-09-01T04:18:34.298Z,13.44
2023-09-01T04:21:02.977Z,13.50
2023-09-01T04:23:33.080Z,13.46
2023-09-01T04:26:04.584Z,13.51
2023-09-01T04:28:46.599Z,13.55
2023-09-01T04:31:20.287Z,13.61
2023-09-01T04:33:52.109Z,13.65
2023-09-01T04:36:23.459Z,13.68
2023-09-01T04:39:04.787Z,13.71
2023-09-01T04:41:33.550Z,13.71
2023-09-01T04:44:03.267Z,13.73
2023-09-01T04:46:31.868Z,13.64
2023-09-01T04:49:01.218Z,13.62
2023-09-01T04:51:29.876Z,13.59
2023-09-01T04:53:59.116Z,13.68
2023-09-01T04:56:26.836Z,13.70
2023-09-01T04:58:54.810Z,13.71
2023-09-01T05:01:22.628Z,13.74
2023-09-01T05:03:50.419Z,13.71
2023-09-01T05:06:18.426Z,13.72
2023-09-01T05:08:46.459Z,13.75
2023-09-01T05:11:15.990Z,13.78
2023-09-01T05:13:43.736Z,13.78
2023-09-01T05:16:12.241Z,13.75
2023-09-01T05:18:41.760Z,13.80
2023-09-01T05:21:11.434Z,13.84
2023-09-01T05:23:42.038Z,13.79
2023-09-01T05:26:09.981Z,13.71
2023-09-01T05:28:39.101Z,13.76
2023-09-01T05:31:08.479Z,13.86
2023-09-01T05:33:38.361Z,13.84
2023-09-01T05:36:07.029Z,13.85
2023-09-01T05:38:34.720Z,13.91
2023-09-01T05:41:06.892Z,13.87
2023-09-01T05:43:34.854Z,13.88
2023-09-01T05:46:04.394Z,13.91
2023-09-01T05:48:32.582Z,13.97
2023-09-01T05:51:00.619Z,14.04
2023-09-01T05:53:28.816Z,14.09
2023-09-01T05:55:56.878Z,14.08
2023-09-01T05:58:24.725Z,14.08
2023-09-01T06:00:52.551Z,14.10
2023-09-01T06:03:26.619Z,14.05
2023-09-01T06:05:56.332Z,13.99
2023-09-01T06:08:25.161Z,14.03
2023-09-01T06:10:55.656Z,13.99
2023-09-01T06:13:24.705Z,14.09
2023-09-01T06:15:58.563Z,14.19
2023-09-01T06:18:29.359Z,14.22
2023-09-01T06:20:57.710Z,14.32
2023-09-01T06:23:29.056Z,14.32
2023-09-01T06:25:58.643Z,14.32
2023-09-01T06:28:27.595Z,14.28
2023-09-01T06:30:55.401Z,14.25
2023-09-01T06:33:23.197Z,14.29
2023-09-01T06:35:52.298Z,14.32
2023-09-01T06:38:20.142Z,14.42
2023-09-01T06:40:47.859Z,14.47
2023-09-01T06:43:15.734Z,14.55
2023-09-01T06:45:43.448Z,14.66
2023-09-01T06:48:11.500Z,14.70
2023-09-01T06:50:39.810Z,14.71
2023-09-01T06:53:09.187Z,14.68
2023-09-01T06:55:37.156Z,14.64
2023-09-01T06:58:06.235Z,14.62
2023-09-01T07:00:34.159Z,14.61
2023-09-01T07:03:01.905Z,14.82
2023-09-01T07:05:29.724Z,14.97
2023-09-01T07:07:57.438Z,14.94
2023-09-01T07:10:26.872Z,15.02
2023-09-01T07:12:54.768Z,15.16
2023-09-01T07:15:23.250Z,15.16
2023-09-01T07:17:51.164Z,15.25
2023-09-01T07:20:19.664Z,15.27
2023-09-01T07:22:47.447Z,15.46
2023-09-01T07:25:17.202Z,15.53
2023-09-01T07:27:47.682Z,15.56
2023-09-01T07:30:15.880Z,15.62
2023-09-01T07:32:43.731Z,15.82
2023-09-01T07:35:11.680Z,16.01
2023-09-01T07:37:40.067Z,16.17
2023-09-01T07:40:08.867Z,16.29
2023-09-01T07:42:36.612Z,16.33
2023-09-01T07:45:07.098Z,16.43
2023-09-01T07:47:35.535Z,16.52
2023-09-01T07:50:03.465Z,16.55
2023-09-01T07:52:31.351Z,16.50
2023-09-01T07:54:59.354Z,16.39
2023-09-01T07:57:27.356Z,16.40
2023-09-01T07:59:55.122Z,16.45
2023-09-01T08:02:24.434Z,16.49
2023-09-01T08:04:52.239Z,16.52
2023-09-01T08:07:20.801Z,16.53
2023-09-01T08:09:49.881Z,16.67
2023-09-01T08:12:17.953Z,16.57
2023-09-01T08:14:46.242Z,16.74
2023-09-01T08:17:14.029Z,16.67
2023-09-01T08:19:43.133Z,16.53
2023-09-01T08:22:12.126Z,16.57
2023-09-01T08:24:39.829Z,16.59
2023-09-01T08:27:08.176Z,16.62
2023-09-01T08:29:35.960Z,16.79
2023-09-01T08:32:04.914Z,16.72
2023-09-01T08:34:33.237Z,16.59
2023-09-01T08:37:02.297Z,16.62
2023-09-01T08:39:30.214Z,16.64
2023-09-01T08:41:58.510Z,16.68
2023-09-01T08:44:29.800Z,16.68
2023-09-01T08:47:00.148Z,16.70
2023-09-01T08:49:28.224Z,16.73
2023-09-01T08:51:58.290Z,16.83
2023-09-01T08:54:28.109Z,16.94
2023-09-01T08:56:55.865Z,16.98
2023-09-01T08:59:25.506Z,16.98
2023-09-01T09:01:53.380Z,16.96
2023-09-01T09:04:21.716Z,17.03
2023-09-01T09:06:49.454Z,17.00
2023-09-01T09:09:18.659Z,16.98
2023-09-01T09:11:58.425Z,17.00
2023-09-01T09:14:26.750Z,17.04
2023-09-01T09:16:55.480Z,17.08
2023-09-01T09:19:24.962Z,17.11
2023-09-01T09:22:07.917Z,17.13
2023-09-01T09:24:37.535Z,17.20
2023-09-01T09:27:07.807Z,17.23
2023-09-01T09:29:42.787Z,17.22
2023-09-01T09:32:18.303Z,17.20
2023-09-01T09:35:05.233Z,17.22
2023-09-01T09:37:33.312Z,17.26
2023-09-01T09:40:12.631Z,17.25
2023-09-01T09:42:43.451Z,17.27
2023-09-01T09:45:27.918Z,17.26
2023-09-01T09:47:57.088Z,17.50
2023-09-01T09:50:26.580Z,18.33
2023-09-01T09:53:01.288Z,19.13
2023-09-01T09:55:30.792Z,19.37
2023-09-01T09:58:07.452Z,19.74
2023-09-01T10:00:40.614Z,19.79
2023-09-01T10:03:09.697Z,19.60
2023-09-01T10:05:40.007Z,19.42
2023-09-01T10:08:09.703Z,19.75
2023-09-01T10:10:38.484Z,20.32
2023-09-01T10:13:09.671Z,20.30
2023-09-01T10:15:38.571Z,20.15
2023-09-01T10:18:09.408Z,20.11
2023-09-01T10:20:41.606Z,20.13
2023-09-01T10:23:10.611Z,20.11
2023-09-01T10:25:39.834Z,20.04
2023-09-01T10:28:13.484Z,20.17
2023-09-01T10:30:42.988Z,19.99
2023-09-01T10:33:12.683Z,19.97
2023-09-01T10:35:43.203Z,19.50
2023-09-01T10:38:12.634Z,19.49
2023-09-01T10:40:45.290Z,19.52
2023-09-01T10:43:14.388Z,19.44
2023-09-01T10:45:42.421Z,19.43
2023-09-01T10:48:14.054Z,19.27
2023-09-01T10:50:43.573Z,19.23
2023-09-01T10:53:31.349Z,19.10
2023-09-01T10:56:13.277Z,19.23
2023-09-01T10:58:48.778Z,19.72
2023-09-01T11:01:28.473Z,20.35
2023-09-01T11:03:57.243Z,20.94
2023-09-01T11:06:25.516Z,20.78
2023-09-01T11:09:00.797Z,20.42
2023-09-01T11:11:29.917Z,20.24
2023-09-01T11:14:03.566Z,20.09
2023-09-01T11:16:31.306Z,20.01
2023-09-01T11:19:02.694Z,20.19
2023-09-01T11:21:30.944Z,20.64
2023-09-01T11:24:00.040Z,20.77
2023-09-01T11:26:29.800Z,21.12
2023-09-01T11:28:58.805Z,20.98
2023-09-01T11:31:39.268Z,20.87
2023-09-01T11:34:07.881Z,20.71
2023-09-01T11:36:36.343Z,20.72
2023-09-01T11:39:06.657Z,20.83
2023-09-01T11:41:34.660Z,20.95
2023-09-01T11:44:02.853Z,20.96
2023-09-01T11:46:37.750Z,20.87
2023-09-01T11:49:07.477Z,20.80
2023-09-01T11:51:36.749Z,20.69
2023-09-01T11:54:05.821Z,20.72
2023-09-01T11:56:34.492Z,20.91
2023-09-01T11:59:02.914Z,21.16
2023-09-01T12:01:40.126Z,21.06
2023-09-01T12:04:11.359Z,20.95
2023-09-01T12:06:41.097Z,21.27
2023-09-01T12:09:13.349Z,21.41
2023-09-01T12:11:54.014Z,21.62
2023-09-01T12:14:22.871Z,22.01
2023-09-01T12:16:54.858Z,22.18
2023-09-01T12:19:37.329Z,22.40
2023-09-01T12:22:09.306Z,21.96
2023-09-01T12:24:40.653Z,21.76
2023-09-01T12:27:09.427Z,21.46
2023-09-01T12:29:39.796Z,21.69
2023-09-01T12:32:07.948Z,21.97
2023-09-01T12:34:39.984Z,22.04
2023-09-01T12:37:08.669Z,22.69
2023-09-01T12:39:37.370Z,22.59
2023-09-01T12:42:05.459Z,22.00
2023-09-01T12:44:33.837Z,21.86
2023-09-01T12:47:01.926Z,21.93
2023-09-01T12:49:30.417Z,21.81
2023-09-01T12:52:01.228Z,21.82
2023-09-01T12:54:29.010Z,21.67
2023-09-01T12:56:56.745Z,21.56
2023-09-01T12:59:24.840Z,21.51
2023-09-01T13:01:52.643Z,21.44
2023-09-01T13:04:20.387Z,21.49
2023-09-01T13:06:48.109Z,21.62
2023-09-01T13:09:17.201Z,21.61
2023-09-01T13:11:45.600Z,21.78
2023-09-01T13:14:13.401Z,22.07
2023-09-01T13:16:41.336Z,22.28
2023-09-01T13:19:09.112Z,22.09
2023-09-01T13:21:36.874Z,21.86
2023-09-01T13:24:05.644Z,21.64
2023-09-01T13:26:35.931Z,21.75
2023-09-01T13:29:04.026Z,21.64
2023-09-01T13:31:31.958Z,21.57
2023-09-01T13:33:59.866Z,21.51
2023-09-01T13:36:28.683Z,21.57
2023-09-01T13:38:56.644Z,21.39
2023-09-01T13:41:24.479Z,21.38
2023-09-01T13:43:53.565Z,21.22
2023-09-01T13:46:26.633Z,20.97
2023-09-01T13:48:58.694Z,20.74
2023-09-01T13:51:31.522Z,20.65
2023-09-01T13:53:59.824Z,20.56
2023-09-01T13:56:27.803Z,20.34
2023-09-01T13:59:00.436Z,20.39
2023-09-01T14:01:28.577Z,20.19
2023-09-01T14:03:56.634Z,20.22
2023-09-01T14:06:25.229Z,20.15
2023-09-01T14:08:53.067Z,20.13
2023-09-01T14:11:20.901Z,20.11
2023-09-01T14:13:48.912Z,20.03
2023-09-01T14:16:19.295Z,20.10
2023-09-01T14:18:49.259Z,20.12
2023-09-01T14:21:17.166Z,20.28
2023-09-01T14:23:46.983Z,20.40
2023-09-01T14:26:19.239Z,20.50
2023-09-01T14:28:47.437Z,20.62
2023-09-01T14:31:16.344Z,20.70
2023-09-01T14:33:48.537Z,20.82
2023-09-01T14:36:17.052Z,21.05
2023-09-01T14:38:44.916Z,21.16
2023-09-01T14:41:17.981Z,21.17
2023-09-01T14:43:47.993Z,21.27
2023-09-01T14:46:18.486Z,20.99
2023-09-01T14:48:47.916Z,21.21
2023-09-01T14:51:16.570Z,21.28
2023-09-01T14:53:46.448Z,20.97
2023-09-01T14:56:16.870Z,21.17
2023-09-01T14:58:44.617Z,20.91
2023-09-01T15:01:13.157Z,20.95
2023-09-01T15:03:40.958Z,20.91
2023-09-01T15:06:12.631Z,21.07
2023-09-01T15:08:40.366Z,21.00
2023-09-01T15:11:08.797Z,21.04
2023-09-01T15:13:36.854Z,21.10
2023-09-01T15:16:05.263Z,21.06
2023-09-01T15:18:33.242Z,21.08
2023-09-01T15:21:06.659Z,21.03
2023-09-01T15:23:36.260Z,20.99
2023-09-01T15:26:04.266Z,20.87
2023-09-01T15:28:32.199Z,20.75
2023-09-01T15:30:59.981Z,20.63
2023-09-01T15:33:28.986Z,20.61
2023-09-01T15:35:58.683Z,20.71
2023-09-01T15:38:27.510Z,20.70
2023-09-01T15:40:59.708Z,20.78
2023-09-01T15:43:29.005Z,20.91
2023-09-01T15:45:58.725Z,20.96
2023-09-01T15:48:27.287Z,20.88
2023-09-01T15:50:55.804Z,20.87
2023-09-01T15:53:24.872Z,20.87
2023-09-01T15:55:55.022Z,20.95
2023-09-01T15:58:24.766Z,20.90
2023-09-01T16:01:01.203Z,20.92
2023-09-01T16:03:37.909Z,20.84
2023-09-01T16:06:08.709Z,20.83
2023-09-01T16:08:37.534Z,20.82
2023-09-01T16:11:05.873Z,20.79
2023-09-01T16:13:36.208Z,20.88
2023-09-01T16:16:04.606Z,20.97
2023-09-01T16:18:33.093Z,20.94
2023-09-01T16:21:06.208Z,20.99
2023-09-01T16:23:34.315Z,20.97
2023-09-01T16:26:02.263Z,20.95
2023-09-01T16:28:29.960Z,20.91
2023-09-01T16:31:02.883Z,20.88
2023-09-01T16:33:30.927Z,20.72
2023-09-01T16:35:59.977Z,20.80
2023-09-01T16:38:30.008Z,20.83
2023-09-01T16:40:59.669Z,20.81
2023-09-01T16:43:27.679Z,20.83
2023-09-01T16:45:55.911Z,20.75
2023-09-01T16:48:25.970Z,20.71
2023-09-01T16:50:53.923Z,20.71
2023-09-01T16:53:22.718Z,20.68
2023-09-01T16:55:51.660Z,20.76
2023-09-01T16:58:22.469Z,20.82
2023-09-01T17:00:50.208Z,20.73
2023-09-01T17:03:18.214Z,20.61
2023-09-01T17:05:47.687Z,20.68
2023-09-01T17:08:15.736Z,20.61
2023-09-01T17:10:43.920Z,20.64
2023-09-01T17:13:12.287Z,20.65
2023-09-01T17:15:42.001Z,20.64
2023-09-01T17:18:11.042Z,20.58
2023-09-01T17:20:56.003Z,20.62
2023-09-01T17:23:26.602Z,20.53
2023-09-01T17:25:56.764Z,20.47
2023-09-01T17:28:27.152Z,20.40
2023-09-01T17:30:55.033Z,20.45
2023-09-01T17:33:23.274Z,20.33
2023-09-01T17:35:53.234Z,20.28
2023-09-01T17:38:29.798Z,20.31
2023-09-01T17:41:06.169Z,20.23
2023-09-01T17:43:35.865Z,20.25
2023-09-01T17:46:03.590Z,20.13
2023-09-01T17:48:31.784Z,20.09
2023-09-01T17:50:59.744Z,20.06
2023-09-01T17:53:29.582Z,20.02
2023-09-01T17:56:00.388Z,19.93
2023-09-01T17:58:28.147Z,19.89
2023-09-01T18:00:56.091Z,19.84
2023-09-01T18:03:24.147Z,19.89
2023-09-01T18:05:52.187Z,19.89
2023-09-01T18:08:21.237Z,19.80
2023-09-01T18:10:50.581Z,19.81
2023-09-01T18:13:18.967Z,19.74
2023-09-01T18:15:47.420Z,19.65
2023-09-01T18:18:15.228Z,19.62
2023-09-01T18:20:43.264Z,19.63
2023-09-01T18:23:18.619Z,19.54
2023-09-01T18:25:46.361Z,19.44
2023-09-01T18:28:16.782Z,19.36
2023-09-01T18:30:44.972Z,19.30
2023-09-01T18:33:25.386Z,19.31
2023-09-01T18:35:57.114Z,19.35
2023-09-01T18:38:25.033Z,19.28
2023-09-01T18:40:54.666Z,19.21
2023-09-01T18:43:23.882Z,19.13
2023-09-01T18:45:52.478Z,19.05
2023-09-01T18:48:24.839Z,18.97
2023-09-01T18:50:54.904Z,18.87
2023-09-01T18:53:22.755Z,18.82
2023-09-01T18:55:50.438Z,18.77
2023-09-01T18:58:18.328Z,18.74
2023-09-01T19:00:47.726Z,18.65
2023-09-01T19:03:21.921Z,18.63
2023-09-01T19:05:52.483Z,18.62
2023-09-01T19:08:24.515Z,18.59
2023-09-01T19:10:54.529Z,18.52
2023-09-01T19:13:24.161Z,18.44
2023-09-01T19:15:54.275Z,18.40
2023-09-01T19:18:30.048Z,18.38
2023-09-01T19:20:59.183Z,18.36
2023-09-01T19:23:31.054Z,18.33
2023-09-01T19:26:01.062Z,18.28
2023-09-01T19:28:37.849Z,18.22
2023-09-01T19:31:09.657Z,18.13
2023-09-01T19:33:41.249Z,18.12
2023-09-01T19:36:10.598Z,18.08
2023-09-01T19:38:38.573Z,18.08
2023-09-01T19:41:08.358Z,18.08
2023-09-01T19:43:37.325Z,18.05
2023-09-01T19:46:06.941Z,18.02
2023-09-01T19:48:39.028Z,18.04
2023-09-01T19:51:08.150Z,18.06
2023-09-01T19:53:36.451Z,18.05
2023-09-01T19:56:13.326Z,18.06
2023-09-01T19:58:45.102Z,18.14
2023-09-01T20:01:17.612Z,18.16
2023-09-01T20:03:47.055Z,18.12
2023-09-01T20:06:16.214Z,18.17
2023-09-01T20:08:48.431Z,18.21
2023-09-01T20:11:24.590Z,18.38
2023-09-01T20:13:54.651Z,18.65
2023-09-01T20:16:30.441Z,18.60
2023-09-01T20:19:13.877Z,18.57
2023-09-01T20:21:47.303Z,18.59
2023-09-01T20:24:18.435Z,18.60
2023-09-01T20:26:53.268Z,18.67
2023-09-01T20:29:34.939Z,18.64
2023-09-01T20:32:06.334Z,18.66
2023-09-01T20:34:38.175Z,18.64
2023-09-01T20:37:13.872Z,18.68
2023-09-01T20:39:43.507Z,18.65
2023-09-01T20:42:13.808Z,18.61
2023-09-01T20:44:45.859Z,18.61
2023-09-01T20:47:21.352Z,18.56
2023-09-01T20:49:52.412Z,18.62
2023-09-01T20:52:21.907Z,18.67
2023-09-01T20:54:52.685Z,18.64
2023-09-01T20:57:21.845Z,18.64
2023-09-01T20:59:50.887Z,18.62
2023-09-01T21:02:19.321Z,18.60
2023-09-01T21:04:48.217Z,18.52
2023-09-01T21:07:17.468Z,18.50
2023-09-01T21:09:45.492Z,18.43
2023-09-01T21:12:13.818Z,18.41
2023-09-01T21:14:41.670Z,18.35
2023-09-01T21:17:09.413Z,18.40
2023-09-01T21:19:37.174Z,18.33
2023-09-01T21:22:05.105Z,18.27
2023-09-01T21:24:34.320Z,18.20
2023-09-01T21:27:02.000Z,18.21
2023-09-01T21:29:29.784Z,18.24
2023-09-01T21:31:57.847Z,18.27
2023-09-01T21:34:25.638Z,18.25
2023-09-01T21:36:53.326Z,18.17
2023-09-01T21:39:21.021Z,18.17
2023-09-01T21:41:50.224Z,18.19
2023-09-01T21:44:19.588Z,18.25
2023-09-01T21:46:47.378Z,18.27
2023-09-01T21:49:17.165Z,18.19
2023-09-01T21:51:46.675Z,18.15
2023-09-01T21:54:14.480Z,18.16
2023-09-01T21:56:42.204Z,18.25
2023-09-01T21:59:11.407Z,18.21
2023-09-01T22:01:39.102Z,18.18
2023-09-01T22:04:07.381Z,18.25
2023-09-01T22:06:35.333Z,18.33
2023-09-01T22:09:03.075Z,18.26
2023-09-01T22:11:30.737Z,18.21
2023-09-01T22:13:58.459Z,18.20
2023-09-01T22:16:28.490Z,18.20
2023-09-01T22:18:57.292Z,18.20
2023-09-01T22:21:25.064Z,18.16
2023-09-01T22:23:52.815Z,18.29
2023-09-01T22:26:21.760Z,18.21
2023-09-01T22:28:49.554Z,18.12
2023-09-01T22:31:17.265Z,18.08
2023-09-01T22:33:46.450Z,18.15
2023-09-01T22:36:14.381Z,18.11
2023-09-01T22:38:43.647Z,18.12
2023-09-01T22:41:12.634Z,18.24
2023-09-01T22:43:41.382Z,18.15
2023-09-01T22:46:09.215Z,18.09
2023-09-01T22:48:36.982Z,18.17
2023-09-01T22:51:06.141Z,18.08
2023-09-01T22:53:33.863Z,17.99
2023-09-01T22:56:01.555Z,17.95
2023-09-01T22:58:29.350Z,17.90
2023-09-01T23:00:57.609Z,17.90
2023-09-01T23:03:25.454Z,17.84
2023-09-01T23:05:53.256Z,17.78
2023-09-01T23:08:22.347Z,17.75
2023-09-01T23:10:51.071Z,17.70
2023-09-01T23:13:19.138Z,17.74
2023-09-01T23:15:47.061Z,17.66
2023-09-01T23:18:15.094Z,17.58
2023-09-01T23:20:43.289Z,17.55
2023-09-01T23:23:11.287Z,17.54
2023-09-01T23:25:40.899Z,17.56
2023-09-01T23:28:08.581Z,17.52
2023-09-01T23:30:36.487Z,17.39
2023-09-01T23:33:04.671Z,17.30
2023-09-01T23:35:33.305Z,17.24
2023-09-01T23:38:01.144Z,17.20
2023-09-01T23:40:28.880Z,17.23
2023-09-01T23:42:57.918Z,17.28
2023-09-01T23:45:27.368Z,17.25
2023-09-01T23:47:55.807Z,17.25
2023-09-01T23:50:24.185Z,17.21
2023-09-01T23:52:51.913Z,17.25
2023-09-01T23:55:19.834Z,17.19
2023-09-01T23:57:47.655Z,17.33
